sensor_id;sensor_type;location;lat;lon;timestamp;pressure;altitude;pressure_sealevel;temperature
23992;BMP280;12205;50.600;4.608;2022-10-18T00:01:41;100498.56;;;17.05
23992;BMP280;12205;50.600;4.608;2022-10-18T00:04:08;100490.84;;;17.03
23992;BMP280;12205;50.600;4.608;2022-10-18T00:06:35;100487.78;;;17.05
23992;BMP280;12205;50.600;4.608;2022-10-18T00:09:03;100486.22;;;17.04
23992;BMP280;12205;50.600;4.608;2022-10-18T00:11:31;100496.63;;;17.05
23992;BMP280;12205;50.600;4.608;2022-10-18T00:13:59;100491.63;;;17.04
23992;BMP280;12205;50.600;4.608;2022-10-18T00:16:26;100494.66;;;17.06
23992;BMP280;12205;50.600;4.608;2022-10-18T00:18:53;100500.06;;;17.06
23992;BMP280;12205;50.600;4.608;2022-10-18T00:21:23;100490.06;;;17.03
23992;BMP280;12205;50.600;4.608;2022-10-18T00:23:52;100491.63;;;17.04
23992;BMP280;12205;50.600;4.608;2022-10-18T00:26:22;100496.22;;;17.03
23992;BMP280;12205;50.600;4.608;2022-10-18T00:28:53;100495.47;;;17.03
23992;BMP280;12205;50.600;4.608;2022-10-18T00:31:24;100501.63;;;17.03
23992;BMP280;12205;50.600;4.608;2022-10-18T00:33:56;100500.88;;;17.03
23992;BMP280;12205;50.600;4.608;2022-10-18T00:36:23;100496.28;;;17.00
23992;BMP280;12205;50.600;4.608;2022-10-18T00:38:51;100489.31;;;16.99
23992;BMP280;12205;50.600;4.608;2022-10-18T00:41:23;100487.78;;;16.98
23992;BMP280;12205;50.600;4.608;2022-10-18T00:43:55;100495.47;;;17.03
23992;BMP280;12205;50.600;4.608;2022-10-18T00:46:24;100491.63;;;17.04
23992;BMP280;12205;50.600;4.608;2022-10-18T00:48:54;100491.63;;;17.04
23992;BMP280;12205;50.600;4.608;2022-10-18T00:51:25;100493.16;;;17.05
23992;BMP280;12205;50.600;4.608;2022-10-18T00:53:53;100477.78;;;16.95
23992;BMP280;12205;50.600;4.608;2022-10-18T00:56:20;100495.88;;;17.05
23992;BMP280;12205;50.600;4.608;2022-10-18T00:58:48;100485.47;;;17.00
23992;BMP280;12205;50.600;4.608;2022-10-18T01:01:18;100492.81;;;16.96
23992;BMP280;12205;50.600;4.608;2022-10-18T01:03:45;100509.38;;;17.05
23992;BMP280;12205;50.600;4.608;2022-10-18T01:06:12;100507.81;;;17.04
23992;BMP280;12205;50.600;4.608;2022-10-18T01:09:03;100505.47;;;17.06
23992;BMP280;12205;50.600;4.608;2022-10-18T01:11:54;100493.94;;;17.05
23992;BMP280;12205;50.600;4.608;2022-10-18T01:14:37;100500.06;;;17.06
23992;BMP280;12205;50.600;4.608;2022-10-18T01:17:15;100491.22;;;17.05
23992;BMP280;12205;50.600;4.608;2022-10-18T01:20:22;100490.81;;;17.07
23992;BMP280;12205;50.600;4.608;2022-10-18T01:23:01;100481.63;;;16.97
23992;BMP280;12205;50.600;4.608;2022-10-18T01:25:49;100491.63;;;17.04
23992;BMP280;12205;50.600;4.608;2022-10-18T01:28:43;100494.66;;;17.06
23992;BMP280;12205;50.600;4.608;2022-10-18T01:31:20;100483.84;;;17.06
23992;BMP280;12205;50.600;4.608;2022-10-18T01:33:53;100474.59;;;17.07
23992;BMP280;12205;50.600;4.608;2022-10-18T01:36:29;100474.59;;;17.07
23992;BMP280;12205;50.600;4.608;2022-10-18T01:39:02;100485.06;;;17.05
23992;BMP280;12205;50.600;4.608;2022-10-18T01:41:33;100494.31;;;17.04
23992;BMP280;12205;50.600;4.608;2022-10-18T01:44:05;100506.66;;;17.01
23992;BMP280;12205;50.600;4.608;2022-10-18T01:46:37;100497.03;;;17.00
23992;BMP280;12205;50.600;4.608;2022-10-18T01:49:05;100491.63;;;17.00
23992;BMP280;12205;50.600;4.608;2022-10-18T01:51:33;100488.53;;;17.02
23992;BMP280;12205;50.600;4.608;2022-10-18T01:54:00;100437.00;;;16.75
23992;BMP280;12205;50.600;4.608;2022-10-18T01:56:41;100480.03;;;17.03
23992;BMP280;12205;50.600;4.608;2022-10-18T01:59:32;100463.81;;;17.03
23992;BMP280;12205;50.600;4.608;2022-10-18T02:02:11;100455.34;;;17.05
23992;BMP280;12205;50.600;4.608;2022-10-18T02:04:48;100449.97;;;17.05
23992;BMP280;12205;50.600;4.608;2022-10-18T02:07:33;100447.25;;;17.05
23992;BMP280;12205;50.600;4.608;2022-10-18T02:10:09;100442.25;;;17.00
23992;BMP280;12205;50.600;4.608;2022-10-18T02:12:40;100416.84;;;16.86
23992;BMP280;12205;50.600;4.608;2022-10-18T02:15:13;100450.69;;;17.09
23992;BMP280;12205;50.600;4.608;2022-10-18T02:17:44;100456.84;;;17.09
23992;BMP280;12205;50.600;4.608;2022-10-18T02:20:14;100460.69;;;17.12
23992;BMP280;12205;50.600;4.608;2022-10-18T02:22:44;100467.63;;;17.13
23992;BMP280;12205;50.600;4.608;2022-10-18T02:25:19;100461.06;;;17.14
23992;BMP280;12205;50.600;4.608;2022-10-18T02:27:47;100463.75;;;17.14
23992;BMP280;12205;50.600;4.608;2022-10-18T02:30:15;100458.34;;;17.14
23992;BMP280;12205;50.600;4.608;2022-10-18T02:32:48;100453.75;;;17.15
23992;BMP280;12205;50.600;4.608;2022-10-18T02:35:24;100456.03;;;17.16
23992;BMP280;12205;50.600;4.608;2022-10-18T02:37:56;100461.44;;;17.16
23992;BMP280;12205;50.600;4.608;2022-10-18T02:40:25;100462.94;;;17.17
23992;BMP280;12205;50.600;4.608;2022-10-18T02:42:55;100469.16;;;17.14
23992;BMP280;12205;50.600;4.608;2022-10-18T02:45:24;100473.41;;;17.12
23992;BMP280;12205;50.600;4.608;2022-10-18T02:47:53;100478.06;;;17.11
23992;BMP280;12205;50.600;4.608;2022-10-18T02:50:20;100476.09;;;17.12
23992;BMP280;12205;50.600;4.608;2022-10-18T02:52:47;100464.53;;;17.11
23992;BMP280;12205;50.600;4.608;2022-10-18T02:55:14;100473.00;;;17.13
23992;BMP280;12205;50.600;4.608;2022-10-18T02:57:41;100466.09;;;17.12
23992;BMP280;12205;50.600;4.608;2022-10-18T03:00:10;100466.09;;;17.12
23992;BMP280;12205;50.600;4.608;2022-10-18T03:02:37;100464.53;;;17.11
23992;BMP280;12205;50.600;4.608;2022-10-18T03:05:07;100469.94;;;17.11
23992;BMP280;12205;50.600;4.608;2022-10-18T03:07:34;100480.75;;;17.11
23992;BMP280;12205;50.600;4.608;2022-10-18T03:10:01;100469.94;;;17.11
23992;BMP280;12205;50.600;4.608;2022-10-18T03:12:28;100470.31;;;17.13
23992;BMP280;12205;50.600;4.608;2022-10-18T03:14:55;100459.50;;;17.13
23992;BMP280;12205;50.600;4.608;2022-10-18T03:17:22;100467.63;;;17.13
23992;BMP280;12205;50.600;4.608;2022-10-18T03:19:49;100474.56;;;17.14
23992;BMP280;12205;50.600;4.608;2022-10-18T03:22:17;100473.00;;;17.13
23992;BMP280;12205;50.600;4.608;2022-10-18T03:24:44;100477.28;;;17.14
23992;BMP280;12205;50.600;4.608;2022-10-18T03:27:11;100490.78;;;17.14
23992;BMP280;12205;50.600;4.608;2022-10-18T03:29:38;100487.31;;;17.14
23992;BMP280;12205;50.600;4.608;2022-10-18T03:32:05;100494.63;;;17.13
23992;BMP280;12205;50.600;4.608;2022-10-18T03:34:33;100450.84;;;16.84
23992;BMP280;12205;50.600;4.608;2022-10-18T03:37:00;100489.63;;;17.15
23992;BMP280;12205;50.600;4.608;2022-10-18T03:39:28;100492.31;;;17.15
23992;BMP280;12205;50.600;4.608;2022-10-18T03:41:55;100496.16;;;17.18
23992;BMP280;12205;50.600;4.608;2022-10-18T03:44:22;100487.25;;;17.17
23992;BMP280;12205;50.600;4.608;2022-10-18T03:46:49;100494.63;;;17.20
23992;BMP280;12205;50.600;4.608;2022-10-18T03:49:16;100494.63;;;17.20
23992;BMP280;12205;50.600;4.608;2022-10-18T03:51:43;100493.81;;;17.20
23992;BMP280;12205;50.600;4.608;2022-10-18T03:54:10;100498.47;;;17.19
23992;BMP280;12205;50.600;4.608;2022-10-18T03:56:39;100498.47;;;17.19
23992;BMP280;12205;50.600;4.608;2022-10-18T03:59:06;100504.63;;;17.20
23992;BMP280;12205;50.600;4.608;2022-10-18T04:01:33;100500.03;;;17.20
23992;BMP280;12205;50.600;4.608;2022-10-18T04:04:00;100502.72;;;17.20
23992;BMP280;12205;50.600;4.608;2022-10-18T04:06:27;100506.94;;;17.21
23992;BMP280;12205;50.600;4.608;2022-10-18T04:08:54;100510.03;;;17.23
23992;BMP280;12205;50.600;4.608;2022-10-18T04:11:21;100507.31;;;17.23
23992;BMP280;12205;50.600;4.608;2022-10-18T04:13:50;100503.84;;;17.26
23992;BMP280;12205;50.600;4.608;2022-10-18T04:16:17;100506.13;;;17.28
23992;BMP280;12205;50.600;4.608;2022-10-18T04:18:44;100506.13;;;17.28
23992;BMP280;12205;50.600;4.608;2022-10-18T04:21:11;100516.53;;;17.29
23992;BMP280;12205;50.600;4.608;2022-10-18T04:23:38;100498.47;;;17.19
23992;BMP280;12205;50.600;4.608;2022-10-18T04:26:06;100512.31;;;17.28
23992;BMP280;12205;50.600;4.608;2022-10-18T04:28:34;100514.63;;;17.26
23992;BMP280;12205;50.600;4.608;2022-10-18T04:31:06;100523.13;;;17.25
23992;BMP280;12205;50.600;4.608;2022-10-18T04:33:33;100517.75;;;17.21
23992;BMP280;12205;50.600;4.608;2022-10-18T04:36:00;100519.28;;;17.22
23992;BMP280;12205;50.600;4.608;2022-10-18T04:38:27;100523.53;;;17.23
23992;BMP280;12205;50.600;4.608;2022-10-18T04:40:54;100519.28;;;17.22
23992;BMP280;12205;50.600;4.608;2022-10-18T04:43:21;100519.28;;;17.22
23992;BMP280;12205;50.600;4.608;2022-10-18T04:45:49;100514.66;;;17.23
23992;BMP280;12205;50.600;4.608;2022-10-18T04:48:18;100515.06;;;17.18
23992;BMP280;12205;50.600;4.608;2022-10-18T04:50:47;100524.34;;;17.20
23992;BMP280;12205;50.600;4.608;2022-10-18T04:53:15;100524.69;;;17.22
23992;BMP280;12205;50.600;4.608;2022-10-18T04:55:43;100520.81;;;17.23
23992;BMP280;12205;50.600;4.608;2022-10-18T04:58:11;100531.63;;;17.23
23992;BMP280;12205;50.600;4.608;2022-10-18T05:00:38;100527.00;;;17.24
23992;BMP280;12205;50.600;4.608;2022-10-18T05:03:05;100529.31;;;17.25
23992;BMP280;12205;50.600;4.608;2022-10-18T05:05:34;100528.53;;;17.25
23992;BMP280;12205;50.600;4.608;2022-10-18T05:08:01;100518.50;;;17.22
23992;BMP280;12205;50.600;4.608;2022-10-18T05:10:28;100518.50;;;17.25
23992;BMP280;12205;50.600;4.608;2022-10-18T05:12:55;100510.75;;;17.27
23992;BMP280;12205;50.600;4.608;2022-10-18T05:15:22;100505.34;;;17.27
23992;BMP280;12205;50.600;4.608;2022-10-18T05:17:49;100522.31;;;17.28
23992;BMP280;12205;50.600;4.608;2022-10-18T05:20:17;100520.81;;;17.27
23992;BMP280;12205;50.600;4.608;2022-10-18T05:22:45;100525.84;;;17.25
23992;BMP280;12205;50.600;4.608;2022-10-18T05:25:12;100523.13;;;17.25
23992;BMP280;12205;50.600;4.608;2022-10-18T05:27:39;100525.47;;;17.23
23992;BMP280;12205;50.600;4.608;2022-10-18T05:30:07;100523.91;;;17.25
23992;BMP280;12205;50.600;4.608;2022-10-18T05:32:34;100522.75;;;17.26
23992;BMP280;12205;50.600;4.608;2022-10-18T05:35:01;100523.13;;;17.25
23992;BMP280;12205;50.600;4.608;2022-10-18T05:37:29;100516.22;;;17.20
23992;BMP280;12205;50.600;4.608;2022-10-18T05:39:57;100531.25;;;17.21
23992;BMP280;12205;50.600;4.608;2022-10-18T05:42:24;100535.53;;;17.19
23992;BMP280;12205;50.600;4.608;2022-10-18T05:44:51;100533.19;;;17.17
23992;BMP280;12205;50.600;4.608;2022-10-18T05:47:18;100528.56;;;17.18
23992;BMP280;12205;50.600;4.608;2022-10-18T05:49:45;100525.50;;;17.19
23992;BMP280;12205;50.600;4.608;2022-10-18T05:52:13;100520.09;;;17.19
23992;BMP280;12205;50.600;4.608;2022-10-18T05:54:41;100519.69;;;17.21
23992;BMP280;12205;50.600;4.608;2022-10-18T05:57:10;100518.94;;;17.20
23992;BMP280;12205;50.600;4.608;2022-10-18T05:59:37;100539.00;;;17.19
23992;BMP280;12205;50.600;4.608;2022-10-18T06:02:04;100536.28;;;17.19
23992;BMP280;12205;50.600;4.608;2022-10-18T06:04:31;100537.06;;;17.16
23992;BMP280;12205;50.600;4.608;2022-10-18T06:06:59;100542.47;;;17.16
23992;BMP280;12205;50.600;4.608;2022-10-18T06:09:27;100534.38;;;17.16
23992;BMP280;12205;50.600;4.608;2022-10-18T06:11:55;100540.56;;;17.13
23992;BMP280;12205;50.600;4.608;2022-10-18T06:14:24;100546.38;;;17.08
23992;BMP280;12205;50.600;4.608;2022-10-18T06:16:51;100547.94;;;17.09
23992;BMP280;12205;50.600;4.608;2022-10-18T06:19:18;100543.31;;;17.09
23992;BMP280;12205;50.600;4.608;2022-10-18T06:21:45;100542.88;;;17.11
23992;BMP280;12205;50.600;4.608;2022-10-18T06:24:13;100531.34;;;17.07
23992;BMP280;12205;50.600;4.608;2022-10-18T06:26:40;100538.66;;;17.10
23992;BMP280;12205;50.600;4.608;2022-10-18T06:29:07;100541.00;;;17.08
23992;BMP280;12205;50.600;4.608;2022-10-18T06:31:35;100527.06;;;17.06
23992;BMP280;12205;50.600;4.608;2022-10-18T06:34:02;100540.19;;;17.11
23992;BMP280;12205;50.600;4.608;2022-10-18T06:36:30;100541.72;;;17.12
23992;BMP280;12205;50.600;4.608;2022-10-18T06:38:57;100551.34;;;17.13
23992;BMP280;12205;50.600;4.608;2022-10-18T06:41:25;100554.06;;;17.13
23992;BMP280;12205;50.600;4.608;2022-10-18T06:43:53;100560.25;;;17.14
23992;BMP280;12205;50.600;4.608;2022-10-18T06:46:23;100554.81;;;17.17
23992;BMP280;12205;50.600;4.608;2022-10-18T06:48:51;100546.72;;;17.21
23992;BMP280;12205;50.600;4.608;2022-10-18T06:51:18;100550.91;;;17.25
23992;BMP280;12205;50.600;4.608;2022-10-18T06:53:45;100550.13;;;17.28
23992;BMP280;12205;50.600;4.608;2022-10-18T06:56:13;100549.34;;;17.32
23992;BMP280;12205;50.600;4.608;2022-10-18T06:58:40;100557.81;;;17.34
23992;BMP280;12205;50.600;4.608;2022-10-18T07:01:09;100561.66;;;17.36
23992;BMP280;12205;50.600;4.608;2022-10-18T07:03:36;100564.75;;;17.38
23992;BMP280;12205;50.600;4.608;2022-10-18T07:06:08;100568.59;;;17.41
23992;BMP280;12205;50.600;4.608;2022-10-18T07:08:36;100570.47;;;17.47
23992;BMP280;12205;50.600;4.608;2022-10-18T07:11:05;100577.03;;;17.50
23992;BMP280;12205;50.600;4.608;2022-10-18T07:13:33;100570.84;;;17.53
23992;BMP280;12205;50.600;4.608;2022-10-18T07:16:03;100572.34;;;17.58
23992;BMP280;12205;50.600;4.608;2022-10-18T07:18:32;100588.16;;;17.59
23992;BMP280;12205;50.600;4.608;2022-10-18T07:21:02;100586.28;;;17.56
23992;BMP280;12205;50.600;4.608;2022-10-18T07:23:31;100592.34;;;17.67
23992;BMP280;12205;50.600;4.608;2022-10-18T07:26:01;100604.31;;;17.70
23992;BMP280;12205;50.600;4.608;2022-10-18T07:28:29;100615.50;;;17.76
23992;BMP280;12205;50.600;4.608;2022-10-18T07:30:56;100620.09;;;17.79
23992;BMP280;12205;50.600;4.608;2022-10-18T07:33:23;100627.78;;;17.84
23992;BMP280;12205;50.600;4.608;2022-10-18T07:35:50;100623.13;;;17.88
23992;BMP280;12205;50.600;4.608;2022-10-18T07:38:17;100626.56;;;17.92
23992;BMP280;12205;50.600;4.608;2022-10-18T07:40:46;100631.56;;;17.94
23992;BMP280;12205;50.600;4.608;2022-10-18T07:43:13;100643.91;;;17.98
23992;BMP280;12205;50.600;4.608;2022-10-18T07:45:40;100654.72;;;17.98
23992;BMP280;12205;50.600;4.608;2022-10-18T07:48:07;100675.59;;;18.01
23992;BMP280;12205;50.600;4.608;2022-10-18T07:50:35;100679.81;;;18.02
23992;BMP280;12205;50.600;4.608;2022-10-18T07:53:02;100686.44;;;18.01
23992;BMP280;12205;50.600;4.608;2022-10-18T07:55:29;100682.16;;;18.00
23992;BMP280;12205;50.600;4.608;2022-10-18T07:57:59;100689.47;;;18.03
23992;BMP280;12205;50.600;4.608;2022-10-18T08:00:26;100697.97;;;18.02
23992;BMP280;12205;50.600;4.608;2022-10-18T08:02:55;100700.69;;;18.02
23992;BMP280;12205;50.600;4.608;2022-10-18T08:05:22;100705.75;;;18.00
23992;BMP280;12205;50.600;4.608;2022-10-18T08:07:50;100703.41;;;17.98
23992;BMP280;12205;50.600;4.608;2022-10-18T08:10:17;100703.47;;;17.91
23992;BMP280;12205;50.600;4.608;2022-10-18T08:12:44;100712.72;;;17.94
23992;BMP280;12205;50.600;4.608;2022-10-18T08:15:13;100707.31;;;17.94
23992;BMP280;12205;50.600;4.608;2022-10-18T08:17:40;100707.72;;;17.92
23992;BMP280;12205;50.600;4.608;2022-10-18T08:20:09;100718.91;;;17.94
23992;BMP280;12205;50.600;4.608;2022-10-18T08:22:36;100730.50;;;17.95
23992;BMP280;12205;50.600;4.608;2022-10-18T08:25:04;100715.84;;;17.88
23992;BMP280;12205;50.600;4.608;2022-10-18T08:27:31;100727.41;;;17.96
23992;BMP280;12205;50.600;4.608;2022-10-18T08:29:58;100723.91;;;17.99
23992;BMP280;12205;50.600;4.608;2022-10-18T08:32:28;100730.88;;;18.00
23992;BMP280;12205;50.600;4.608;2022-10-18T08:34:55;100728.13;;;18.04
23992;BMP280;12205;50.600;4.608;2022-10-18T08:37:22;100733.50;;;18.07
23992;BMP280;12205;50.600;4.608;2022-10-18T08:39:49;100736.56;;;18.13
23992;BMP280;12205;50.600;4.608;2022-10-18T08:42:39;100710.25;;;18.21
23992;BMP280;12205;50.600;4.608;2022-10-18T08:45:11;100703.19;;;18.27
23992;BMP280;12205;50.600;4.608;2022-10-18T08:47:43;100713.63;;;18.32
23992;BMP280;12205;50.600;4.608;2022-10-18T08:50:17;100716.25;;;18.43
23992;BMP280;12205;50.600;4.608;2022-10-18T08:52:52;100710.00;;;18.50
23992;BMP280;12205;50.600;4.608;2022-10-18T08:55:27;100720.63;;;18.71
23992;BMP280;12205;50.600;4.608;2022-10-18T08:57:56;100744.56;;;18.76
23992;BMP280;12205;50.600;4.608;2022-10-18T09:00:28;100765.09;;;18.77
23992;BMP280;12205;50.600;4.608;2022-10-18T09:03:22;100790.59;;;18.80
23992;BMP280;12205;50.600;4.608;2022-10-18T09:05:58;100805.31;;;18.82
23992;BMP280;12205;50.600;4.608;2022-10-18T09:08:46;100815.69;;;18.88
23992;BMP280;12205;50.600;4.608;2022-10-18T09:11:37;100802.94;;;18.84
23992;BMP280;12205;50.600;4.608;2022-10-18T09:14:39;100824.91;;;18.94
23992;BMP280;12205;50.600;4.608;2022-10-18T09:17:18;100824.50;;;18.99
23992;BMP280;12205;50.600;4.608;2022-10-18T09:20:08;100823.31;;;19.00
23992;BMP280;12205;50.600;4.608;2022-10-18T09:22:50;100849.91;;;19.12
23992;BMP280;12205;50.600;4.608;2022-10-18T09:25:20;100866.50;;;19.18
23992;BMP280;12205;50.600;4.608;2022-10-18T09:27:54;100868.78;;;19.23
23992;BMP280;12205;50.600;4.608;2022-10-18T09:30:38;100889.66;;;19.30
23992;BMP280;12205;50.600;4.608;2022-10-18T09:33:34;100905.16;;;19.25
23992;BMP280;12205;50.600;4.608;2022-10-18T09:36:08;100941.56;;;19.28
23992;BMP280;12205;50.600;4.608;2022-10-18T09:38:43;100946.19;;;19.27
23992;BMP280;12205;50.600;4.608;2022-10-18T09:41:26;100960.16;;;19.30
23992;BMP280;12205;50.600;4.608;2022-10-18T09:43:59;100953.16;;;19.29
23992;BMP280;12205;50.600;4.608;2022-10-18T09:46:34;100964.72;;;19.36
23992;BMP280;12205;50.600;4.608;2022-10-18T09:49:10;100960.84;;;19.37
23992;BMP280;12205;50.600;4.608;2022-10-18T09:51:41;100952.56;;;19.55
23992;BMP280;12205;50.600;4.608;2022-10-18T09:54:24;100954.09;;;19.56
23992;BMP280;12205;50.600;4.608;2022-10-18T09:57:01;101005.03;;;19.76
23992;BMP280;12205;50.600;4.608;2022-10-18T09:59:37;101018.56;;;19.83
23992;BMP280;12205;50.600;4.608;2022-10-18T10:02:12;101044.06;;;19.89
23992;BMP280;12205;50.600;4.608;2022-10-18T10:04:39;101033.94;;;19.97
23992;BMP280;12205;50.600;4.608;2022-10-18T10:07:13;101030.72;;;20.05
23992;BMP280;12205;50.600;4.608;2022-10-18T10:09:45;101036.47;;;20.11
23992;BMP280;12205;50.600;4.608;2022-10-18T10:12:31;101028.25;;;20.18
23992;BMP280;12205;50.600;4.608;2022-10-18T10:15:16;101035.19;;;20.23
23992;BMP280;12205;50.600;4.608;2022-10-18T10:17:53;101032.06;;;20.28
23992;BMP280;12205;50.600;4.608;2022-10-18T10:20:24;101036.94;;;20.06
23992;BMP280;12205;50.600;4.608;2022-10-18T10:22:53;101079.31;;;20.31
23992;BMP280;12205;50.600;4.608;2022-10-18T10:25:29;101092.47;;;20.36
23992;BMP280;12205;50.600;4.608;2022-10-18T10:28:02;101090.44;;;20.43
23992;BMP280;12205;50.600;4.608;2022-10-18T10:30:33;101097.00;;;20.46
23992;BMP280;12205;50.600;4.608;2022-10-18T10:33:00;101115.66;;;20.44
23992;BMP280;12205;50.600;4.608;2022-10-18T10:35:31;101110.25;;;20.40
23992;BMP280;12205;50.600;4.608;2022-10-18T10:38:00;101123.13;;;20.36
23992;BMP280;12205;50.600;4.608;2022-10-18T10:40:28;101127.44;;;20.30
23992;BMP280;12205;50.600;4.608;2022-10-18T10:43:03;101135.25;;;20.28
23992;BMP280;12205;50.600;4.608;2022-10-18T10:45:35;101132.88;;;20.30
23992;BMP280;12205;50.600;4.608;2022-10-18T10:48:15;101168.22;;;20.26
23992;BMP280;12205;50.600;4.608;2022-10-18T10:51:01;101192.31;;;20.21
23992;BMP280;12205;50.600;4.608;2022-10-18T10:53:39;101174.13;;;20.18
23992;BMP280;12205;50.600;4.608;2022-10-18T10:56:23;101179.56;;;20.18
23992;BMP280;12205;50.600;4.608;2022-10-18T10:58:52;101172.97;;;20.19
23992;BMP280;12205;50.600;4.608;2022-10-18T11:01:28;101197.38;;;20.15
23992;BMP280;12205;50.600;4.608;2022-10-18T11:03:58;101198.88;;;20.27
23992;BMP280;12205;50.600;4.608;2022-10-18T11:06:37;101181.34;;;20.35
23992;BMP280;12205;50.600;4.608;2022-10-18T11:09:23;101180.88;;;20.40
23992;BMP280;12205;50.600;4.608;2022-10-18T11:12:02;101210.75;;;20.40
23992;BMP280;12205;50.600;4.608;2022-10-18T11:14:38;101204.88;;;20.45
23992;BMP280;12205;50.600;4.608;2022-10-18T11:17:18;101209.47;;;20.56
23992;BMP280;12205;50.600;4.608;2022-10-18T11:20:21;101242.72;;;20.67
23992;BMP280;12205;50.600;4.608;2022-10-18T11:22:59;101289.28;;;20.69
23992;BMP280;12205;50.600;4.608;2022-10-18T11:25:44;101323.50;;;20.63
23992;BMP280;12205;50.600;4.608;2022-10-18T11:28:25;101349.16;;;20.62
23992;BMP280;12205;50.600;4.608;2022-10-18T11:31:09;101367.41;;;20.58
23992;BMP280;12205;50.600;4.608;2022-10-18T11:33:53;101332.84;;;20.62
23992;BMP280;12205;50.600;4.608;2022-10-18T11:36:33;101328.19;;;20.62
23992;BMP280;12205;50.600;4.608;2022-10-18T11:39:17;101317.28;;;20.66
23992;BMP280;12205;50.600;4.608;2022-10-18T11:41:54;101328.13;;;20.70
23992;BMP280;12205;50.600;4.608;2022-10-18T11:44:32;101318.75;;;20.74
23992;BMP280;12205;50.600;4.608;2022-10-18T11:47:11;101328.78;;;20.81
23992;BMP280;12205;50.600;4.608;2022-10-18T11:50:00;101295.47;;;20.73
23992;BMP280;12205;50.600;4.608;2022-10-18T11:52:39;101303.50;;;20.88
23992;BMP280;12205;50.600;4.608;2022-10-18T11:55:22;101272.69;;;20.98
23992;BMP280;12205;50.600;4.608;2022-10-18T11:58:05;101295.09;;;21.09
23992;BMP280;12205;50.600;4.608;2022-10-18T12:00:48;101329.56;;;21.19
23992;BMP280;12205;50.600;4.608;2022-10-18T12:03:32;101374.94;;;21.26
23992;BMP280;12205;50.600;4.608;2022-10-18T12:06:05;101368.59;;;21.40
23992;BMP280;12205;50.600;4.608;2022-10-18T12:08:38;101386.56;;;21.64
23992;BMP280;12205;50.600;4.608;2022-10-18T12:11:13;101367.91;;;21.94
23992;BMP280;12205;50.600;4.608;2022-10-18T12:13:47;101364.94;;;22.39
23992;BMP280;12205;50.600;4.608;2022-10-18T12:16:19;101396.88;;;23.05
23992;BMP280;12205;50.600;4.608;2022-10-18T12:18:54;101406.50;;;23.90
23992;BMP280;12205;50.600;4.608;2022-10-18T12:21:24;101426.47;;;24.85
23992;BMP280;12205;50.600;4.608;2022-10-18T12:23:57;101420.44;;;26.00
23992;BMP280;12205;50.600;4.608;2022-10-18T12:26:26;101427.88;;;27.04
23992;BMP280;12205;50.600;4.608;2022-10-18T12:29:07;101436.84;;;28.07
23992;BMP280;12205;50.600;4.608;2022-10-18T12:31:44;101439.00;;;28.95
23992;BMP280;12205;50.600;4.608;2022-10-18T12:34:33;101441.47;;;29.93
23992;BMP280;12205;50.600;4.608;2022-10-18T12:40:15;101442.19;;;31.72
23992;BMP280;12205;50.600;4.608;2022-10-18T12:42:47;101433.13;;;32.44
23992;BMP280;12205;50.600;4.608;2022-10-18T12:45:26;101440.13;;;33.03
23992;BMP280;12205;50.600;4.608;2022-10-18T12:47:59;101435.88;;;33.50
23992;BMP280;12205;50.600;4.608;2022-10-18T12:50:32;101439.03;;;33.97
23992;BMP280;12205;50.600;4.608;2022-10-18T12:53:05;101436.59;;;34.33
23992;BMP280;12205;50.600;4.608;2022-10-18T12:55:35;101433.03;;;34.72
23992;BMP280;12205;50.600;4.608;2022-10-18T12:58:21;101430.69;;;35.04
23992;BMP280;12205;50.600;4.608;2022-10-18T13:01:03;101428.53;;;35.38
23992;BMP280;12205;50.600;4.608;2022-10-18T13:04:02;101431.22;;;35.55
23992;BMP280;12205;50.600;4.608;2022-10-18T13:07:15;101434.44;;;35.76
23992;BMP280;12205;50.600;4.608;2022-10-18T13:10:37;101439.31;;;36.00
23992;BMP280;12205;50.600;4.608;2022-10-18T13:13:38;101430.03;;;36.22
23992;BMP280;12205;50.600;4.608;2022-10-18T13:16:32;101428.19;;;36.55
23992;BMP280;12205;50.600;4.608;2022-10-18T13:19:19;101428.38;;;36.87
23992;BMP280;12205;50.600;4.608;2022-10-18T13:21:58;101422.13;;;37.00
23992;BMP280;12205;50.600;4.608;2022-10-18T13:24:38;101424.03;;;37.10
23992;BMP280;12205;50.600;4.608;2022-10-18T13:27:25;101421.53;;;37.26
23992;BMP280;12205;50.600;4.608;2022-10-18T13:30:26;101423.00;;;37.32
23992;BMP280;12205;50.600;4.608;2022-10-18T13:33:17;101426.97;;;37.56
23992;BMP280;12205;50.600;4.608;2022-10-18T13:35:52;101425.69;;;37.57
23992;BMP280;12205;50.600;4.608;2022-10-18T13:38:46;101430.69;;;37.77
23992;BMP280;12205;50.600;4.608;2022-10-18T13:41:17;101429.31;;;38.16
23992;BMP280;12205;50.600;4.608;2022-10-18T13:44:10;101434.16;;;38.29
23992;BMP280;12205;50.600;4.608;2022-10-18T13:50:28;101446.09;;;38.69
23992;BMP280;12205;50.600;4.608;2022-10-18T13:53:37;101447.91;;;38.93
23992;BMP280;12205;50.600;4.608;2022-10-18T13:56:51;101450.56;;;39.26
23992;BMP280;12205;50.600;4.608;2022-10-18T14:00:03;101451.38;;;39.68
23992;BMP280;12205;50.600;4.608;2022-10-18T14:02:56;101447.78;;;39.88
23992;BMP280;12205;50.600;4.608;2022-10-18T14:05:51;101446.34;;;39.95
23992;BMP280;12205;50.600;4.608;2022-10-18T14:08:31;101427.03;;;40.12
23992;BMP280;12205;50.600;4.608;2022-10-18T14:11:04;101436.09;;;40.26
23992;BMP280;12205;50.600;4.608;2022-10-18T14:13:41;101443.44;;;40.37
23992;BMP280;12205;50.600;4.608;2022-10-18T14:16:25;101447.38;;;40.34
23992;BMP280;12205;50.600;4.608;2022-10-18T14:19:01;101447.69;;;40.23
23992;BMP280;12205;50.600;4.608;2022-10-18T14:21:39;101449.03;;;40.08
23992;BMP280;12205;50.600;4.608;2022-10-18T14:24:19;101427.31;;;40.01
23992;BMP280;12205;50.600;4.608;2022-10-18T14:26:47;101440.75;;;39.95
23992;BMP280;12205;50.600;4.608;2022-10-18T14:29:18;101435.88;;;39.95
23992;BMP280;12205;50.600;4.608;2022-10-18T14:31:52;101433.00;;;39.88
23992;BMP280;12205;50.600;4.608;2022-10-18T14:34:20;101426.06;;;39.60
23992;BMP280;12205;50.600;4.608;2022-10-18T14:36:50;101427.19;;;39.44
23992;BMP280;12205;50.600;4.608;2022-10-18T14:39:21;101439.25;;;39.18